sensor_id;sensor_type;location;lat;lon;timestamp;temperature;humidity
67188;DHT22;54117;53.532;49.426;2022-08-25T00:01:25;18.50;64.30
67188;DHT22;54117;53.532;49.426;2022-08-25T00:03:52;18.50;64.20
67188;DHT22;54117;53.532;49.426;2022-08-25T00:06:20;18.50;64.00
67188;DHT22;54117;53.532;49.426;2022-08-25T00:08:47;18.40;63.60
67188;DHT22;54117;53.532;49.426;2022-08-25T00:11:20;18.40;63.30
67188;DHT22;54117;53.532;49.426;2022-08-25T00:13:50;18.40;63.00
67188;DHT22;54117;53.532;49.426;2022-08-25T00:16:19;18.50;63.10
67188;DHT22;54117;53.532;49.426;2022-08-25T00:18:49;18.40;63.40
67188;DHT22;54117;53.532;49.426;2022-08-25T00:21:16;18.40;63.70
67188;DHT22;54117;53.532;49.426;2022-08-25T00:23:43;18.40;63.70
67188;DHT22;54117;53.532;49.426;2022-08-25T00:26:11;18.40;64.10
67188;DHT22;54117;53.532;49.426;2022-08-25T00:28:37;18.30;64.50
67188;DHT22;54117;53.532;49.426;2022-08-25T00:31:05;18.30;64.70
67188;DHT22;54117;53.532;49.426;2022-08-25T00:33:35;18.30;64.80
67188;DHT22;54117;53.532;49.426;2022-08-25T00:36:02;18.30;65.40
67188;DHT22;54117;53.532;49.426;2022-08-25T00:38:28;18.30;65.40
67188;DHT22;54117;53.532;49.426;2022-08-25T00:40:55;18.20;65.20
67188;DHT22;54117;53.532;49.426;2022-08-25T00:43:52;18.20;65.40
67188;DHT22;54117;53.532;49.426;2022-08-25T00:46:29;18.10;65.40
67188;DHT22;54117;53.532;49.426;2022-08-25T00:52:05;18.00;64.80
67188;DHT22;54117;53.532;49.426;2022-08-25T00:54:42;18.10;65.20
67188;DHT22;54117;53.532;49.426;2022-08-25T00:57:12;18.10;65.40
67188;DHT22;54117;53.532;49.426;2022-08-25T00:59:40;18.10;65.10
67188;DHT22;54117;53.532;49.426;2022-08-25T01:02:09;18.10;65.50
67188;DHT22;54117;53.532;49.426;2022-08-25T01:04:36;18.20;65.60
67188;DHT22;54117;53.532;49.426;2022-08-25T01:07:03;18.20;65.50
67188;DHT22;54117;53.532;49.426;2022-08-25T01:09:30;18.20;65.50
67188;DHT22;54117;53.532;49.426;2022-08-25T01:11:58;18.20;65.40
67188;DHT22;54117;53.532;49.426;2022-08-25T01:14:25;18.20;65.30
67188;DHT22;54117;53.532;49.426;2022-08-25T01:16:52;18.20;65.80
67188;DHT22;54117;53.532;49.426;2022-08-25T01:19:19;18.10;66.10
67188;DHT22;54117;53.532;49.426;2022-08-25T01:21:49;18.00;66.10
67188;DHT22;54117;53.532;49.426;2022-08-25T01:24:24;18.00;66.40
67188;DHT22;54117;53.532;49.426;2022-08-25T01:26:51;18.00;66.50
67188;DHT22;54117;53.532;49.426;2022-08-25T01:29:17;17.90;66.30
67188;DHT22;54117;53.532;49.426;2022-08-25T01:31:53;17.90;66.70
67188;DHT22;54117;53.532;49.426;2022-08-25T01:34:21;17.80;66.90
67188;DHT22;54117;53.532;49.426;2022-08-25T01:36:48;17.80;66.50
67188;DHT22;54117;53.532;49.426;2022-08-25T01:39:15;17.70;67.00
67188;DHT22;54117;53.532;49.426;2022-08-25T01:44:14;17.70;67.60
67188;DHT22;54117;53.532;49.426;2022-08-25T01:46:41;17.70;67.60
67188;DHT22;54117;53.532;49.426;2022-08-25T01:49:07;17.70;67.90
67188;DHT22;54117;53.532;49.426;2022-08-25T01:51:41;17.60;68.80
67188;DHT22;54117;53.532;49.426;2022-08-25T01:54:08;17.60;68.60
67188;DHT22;54117;53.532;49.426;2022-08-25T01:56:34;17.70;68.90
67188;DHT22;54117;53.532;49.426;2022-08-25T01:59:00;17.70;68.80
67188;DHT22;54117;53.532;49.426;2022-08-25T02:01:26;17.80;68.40
67188;DHT22;54117;53.532;49.426;2022-08-25T02:03:54;17.90;69.10
67188;DHT22;54117;53.532;49.426;2022-08-25T02:06:27;18.00;68.00
67188;DHT22;54117;53.532;49.426;2022-08-25T02:08:56;18.00;67.90
67188;DHT22;54117;53.532;49.426;2022-08-25T02:11:23;18.00;67.90
67188;DHT22;54117;53.532;49.426;2022-08-25T02:13:50;18.00;68.10
67188;DHT22;54117;53.532;49.426;2022-08-25T02:16:22;18.00;68.50
67188;DHT22;54117;53.532;49.426;2022-08-25T02:18:50;18.10;68.40
67188;DHT22;54117;53.532;49.426;2022-08-25T02:21:17;18.10;68.20
67188;DHT22;54117;53.532;49.426;2022-08-25T02:23:44;18.10;68.40
67188;DHT22;54117;53.532;49.426;2022-08-25T02:26:10;18.10;68.70
67188;DHT22;54117;53.532;49.426;2022-08-25T02:28:36;18.00;68.80
67188;DHT22;54117;53.532;49.426;2022-08-25T02:31:04;18.10;69.10
67188;DHT22;54117;53.532;49.426;2022-08-25T02:33:30;18.10;69.30
67188;DHT22;54117;53.532;49.426;2022-08-25T02:35:58;18.20;69.50
67188;DHT22;54117;53.532;49.426;2022-08-25T02:38:25;18.20;69.50
67188;DHT22;54117;53.532;49.426;2022-08-25T02:40:54;18.30;69.60
67188;DHT22;54117;53.532;49.426;2022-08-25T02:43:20;18.40;69.40
67188;DHT22;54117;53.532;49.426;2022-08-25T02:45:47;18.40;69.10
67188;DHT22;54117;53.532;49.426;2022-08-25T02:48:13;18.50;69.10
67188;DHT22;54117;53.532;49.426;2022-08-25T02:50:39;18.50;69.00
67188;DHT22;54117;53.532;49.426;2022-08-25T02:53:06;18.60;68.80
67188;DHT22;54117;53.532;49.426;2022-08-25T02:55:32;18.60;68.80
67188;DHT22;54117;53.532;49.426;2022-08-25T02:57:58;18.80;68.80
67188;DHT22;54117;53.532;49.426;2022-08-25T03:00:24;18.90;68.70
67188;DHT22;54117;53.532;49.426;2022-08-25T03:02:51;19.00;68.50
67188;DHT22;54117;53.532;49.426;2022-08-25T03:05:17;19.10;68.20
67188;DHT22;54117;53.532;49.426;2022-08-25T03:07:43;19.20;68.20
67188;DHT22;54117;53.532;49.426;2022-08-25T03:10:13;19.30;68.20
67188;DHT22;54117;53.532;49.426;2022-08-25T03:12:40;19.30;68.10
67188;DHT22;54117;53.532;49.426;2022-08-25T03:15:11;19.40;67.80
67188;DHT22;54117;53.532;49.426;2022-08-25T03:17:37;19.50;67.60
67188;DHT22;54117;53.532;49.426;2022-08-25T03:20:05;19.70;67.50
67188;DHT22;54117;53.532;49.426;2022-08-25T03:22:31;19.70;67.20
67188;DHT22;54117;53.532;49.426;2022-08-25T03:24:58;19.90;66.80
67188;DHT22;54117;53.532;49.426;2022-08-25T03:27:44;20.00;66.60
67188;DHT22;54117;53.532;49.426;2022-08-25T03:30:10;20.20;66.30
67188;DHT22;54117;53.532;49.426;2022-08-25T03:32:37;20.50;65.80
67188;DHT22;54117;53.532;49.426;2022-08-25T03:35:04;21.30;65.50
67188;DHT22;54117;53.532;49.426;2022-08-25T03:37:30;22.90;61.60
67188;DHT22;54117;53.532;49.426;2022-08-25T03:39:57;24.70;57.30
67188;DHT22;54117;53.532;49.426;2022-08-25T03:42:23;26.30;53.40
67188;DHT22;54117;53.532;49.426;2022-08-25T03:44:50;27.80;50.10
67188;DHT22;54117;53.532;49.426;2022-08-25T03:47:16;29.00;47.30
67188;DHT22;54117;53.532;49.426;2022-08-25T03:49:42;30.10;44.70
67188;DHT22;54117;53.532;49.426;2022-08-25T03:52:09;30.90;43.40
67188;DHT22;54117;53.532;49.426;2022-08-25T03:54:35;31.80;42.30
67188;DHT22;54117;53.532;49.426;2022-08-25T03:57:01;32.50;40.00
67188;DHT22;54117;53.532;49.426;2022-08-25T03:59:28;33.10;38.40
67188;DHT22;54117;53.532;49.426;2022-08-25T04:01:55;33.70;37.60
67188;DHT22;54117;53.532;49.426;2022-08-25T04:04:21;34.20;37.00
67188;DHT22;54117;53.532;49.426;2022-08-25T04:06:47;34.60;36.70
67188;DHT22;54117;53.532;49.426;2022-08-25T04:09:14;35.10;35.60
67188;DHT22;54117;53.532;49.426;2022-08-25T04:11:40;35.50;34.50
67188;DHT22;54117;53.532;49.426;2022-08-25T04:14:06;35.90;34.40
67188;DHT22;54117;53.532;49.426;2022-08-25T04:16:34;36.30;33.80
67188;DHT22;54117;53.532;49.426;2022-08-25T04:19:02;36.70;33.20
67188;DHT22;54117;53.532;49.426;2022-08-25T04:21:29;37.10;32.90
67188;DHT22;54117;53.532;49.426;2022-08-25T04:23:56;37.40;32.30
67188;DHT22;54117;53.532;49.426;2022-08-25T04:26:35;37.60;32.30
67188;DHT22;54117;53.532;49.426;2022-08-25T04:29:03;37.80;32.40
67188;DHT22;54117;53.532;49.426;2022-08-25T04:31:31;38.10;31.60
67188;DHT22;54117;53.532;49.426;2022-08-25T04:34:01;38.30;31.40
67188;DHT22;54117;53.532;49.426;2022-08-25T04:36:27;38.50;31.40
67188;DHT22;54117;53.532;49.426;2022-08-25T04:38:53;38.70;31.50
67188;DHT22;54117;53.532;49.426;2022-08-25T04:41:22;38.90;31.20
67188;DHT22;54117;53.532;49.426;2022-08-25T04:43:52;39.10;31.50
67188;DHT22;54117;53.532;49.426;2022-08-25T04:46:23;39.40;30.80
67188;DHT22;54117;53.532;49.426;2022-08-25T04:48:50;39.50;30.60
67188;DHT22;54117;53.532;49.426;2022-08-25T04:51:22;39.80;30.60
67188;DHT22;54117;53.532;49.426;2022-08-25T04:53:49;39.90;30.10
67188;DHT22;54117;53.532;49.426;2022-08-25T04:56:17;40.20;29.70
67188;DHT22;54117;53.532;49.426;2022-08-25T04:58:44;40.40;29.50
67188;DHT22;54117;53.532;49.426;2022-08-25T05:01:28;40.60;29.40
67188;DHT22;54117;53.532;49.426;2022-08-25T05:04:00;40.60;29.40
67188;DHT22;54117;53.532;49.426;2022-08-25T05:06:29;40.80;29.70
67188;DHT22;54117;53.532;49.426;2022-08-25T05:08:57;41.10;29.80
67188;DHT22;54117;53.532;49.426;2022-08-25T05:11:25;41.30;29.00
67188;DHT22;54117;53.532;49.426;2022-08-25T05:13:53;41.60;28.50
67188;DHT22;54117;53.532;49.426;2022-08-25T05:16:21;41.90;28.90
67188;DHT22;54117;53.532;49.426;2022-08-25T05:18:48;42.00;27.60
67188;DHT22;54117;53.532;49.426;2022-08-25T05:21:18;42.10;27.60
67188;DHT22;54117;53.532;49.426;2022-08-25T05:23:44;42.20;27.40
67188;DHT22;54117;53.532;49.426;2022-08-25T05:26:19;42.30;27.50
67188;DHT22;54117;53.532;49.426;2022-08-25T05:28:50;42.40;27.70
67188;DHT22;54117;53.532;49.426;2022-08-25T05:31:17;42.70;27.30
67188;DHT22;54117;53.532;49.426;2022-08-25T05:33:43;42.60;27.90
67188;DHT22;54117;53.532;49.426;2022-08-25T05:36:11;42.90;27.40
67188;DHT22;54117;53.532;49.426;2022-08-25T05:38:41;43.10;27.10
67188;DHT22;54117;53.532;49.426;2022-08-25T05:41:52;43.30;27.10
67188;DHT22;54117;53.532;49.426;2022-08-25T05:44:05;43.40;27.20
67188;DHT22;54117;53.532;49.426;2022-08-25T05:46:35;43.50;27.00
67188;DHT22;54117;53.532;49.426;2022-08-25T05:49:01;43.60;27.20
67188;DHT22;54117;53.532;49.426;2022-08-25T05:51:27;43.80;27.50
67188;DHT22;54117;53.532;49.426;2022-08-25T05:53:54;43.90;26.90
67188;DHT22;54117;53.532;49.426;2022-08-25T05:56:20;44.00;26.80
67188;DHT22;54117;53.532;49.426;2022-08-25T05:58:47;44.00;26.20
67188;DHT22;54117;53.532;49.426;2022-08-25T06:01:25;44.10;26.20
67188;DHT22;54117;53.532;49.426;2022-08-25T06:04:10;44.00;26.20
67188;DHT22;54117;53.532;49.426;2022-08-25T06:06:37;44.20;26.60
67188;DHT22;54117;53.532;49.426;2022-08-25T06:09:04;44.40;26.00
67188;DHT22;54117;53.532;49.426;2022-08-25T06:11:33;44.40;26.10
67188;DHT22;54117;53.532;49.426;2022-08-25T06:13:59;44.40;26.30
67188;DHT22;54117;53.532;49.426;2022-08-25T06:16:26;44.40;26.10
67188;DHT22;54117;53.532;49.426;2022-08-25T06:18:52;44.50;25.50
67188;DHT22;54117;53.532;49.426;2022-08-25T06:21:20;44.60;25.60
67188;DHT22;54117;53.532;49.426;2022-08-25T06:23:55;44.60;25.60
67188;DHT22;54117;53.532;49.426;2022-08-25T06:26:31;44.70;25.50
67188;DHT22;54117;53.532;49.426;2022-08-25T06:28:59;44.60;25.30
67188;DHT22;54117;53.532;49.426;2022-08-25T06:31:28;44.60;25.60
67188;DHT22;54117;53.532;49.426;2022-08-25T06:33:55;44.60;25.50
67188;DHT22;54117;53.532;49.426;2022-08-25T06:36:50;44.60;25.40
67188;DHT22;54117;53.532;49.426;2022-08-25T06:39:16;44.30;25.30
67188;DHT22;54117;53.532;49.426;2022-08-25T06:41:46;44.40;25.50
67188;DHT22;54117;53.532;49.426;2022-08-25T06:44:15;44.40;25.40
67188;DHT22;54117;53.532;49.426;2022-08-25T06:46:41;44.30;25.20
67188;DHT22;54117;53.532;49.426;2022-08-25T06:49:10;44.00;25.70
67188;DHT22;54117;53.532;49.426;2022-08-25T06:51:40;44.00;26.30
67188;DHT22;54117;53.532;49.426;2022-08-25T06:54:10;43.90;25.70
67188;DHT22;54117;53.532;49.426;2022-08-25T06:56:39;43.60;25.40
67188;DHT22;54117;53.532;49.426;2022-08-25T06:59:09;43.40;25.90
